createdAt,value
2019-05-07T00:00:12.650Z,74.08
2019-05-07T00:03:32.972Z,73.68
2019-05-07T00:04:33.286Z,73.68
2019-05-07T00:05:33.290Z,72.96
2019-05-07T00:06:32.748Z,73.68
2019-05-07T00:07:32.769Z,74.12
2019-05-07T00:08:32.726Z,73.60
2019-05-07T00:09:32.714Z,74.02
2019-05-07T00:10:33.260Z,73.91
2019-05-07T00:11:33.161Z,74.22
2019-05-07T00:12:32.683Z,74.22
2019-05-07T00:13:33.291Z,74.02
2019-05-07T00:14:34.621Z,74.33
2019-05-07T00:15:32.946Z,74.12
2019-05-07T00:16:32.637Z,74.95
2019-05-07T00:17:32.627Z,75.05
2019-05-07T00:18:32.616Z,74.53
2019-05-07T00:19:32.631Z,74.95
2019-05-07T00:20:32.901Z,74.60
2019-05-07T00:21:32.730Z,74.29
2019-05-07T00:22:32.732Z,74.71
2019-05-07T00:23:32.733Z,74.71
2019-05-07T00:24:33.240Z,74.60
2019-05-07T00:25:33.000Z,74.50
2019-05-07T00:26:32.545Z,74.29
2019-05-07T00:27:32.513Z,74.40
2019-05-07T00:28:32.660Z,74.19
2019-05-07T00:29:32.489Z,74.08
2019-05-07T00:30:33.194Z,74.19
2019-05-07T00:31:32.661Z,74.29
2019-05-07T00:32:32.842Z,74.50
2019-05-07T00:33:32.499Z,74.50
2019-05-07T00:34:32.874Z,74.19
2019-05-07T00:35:32.522Z,74.29
2019-05-07T00:36:32.525Z,74.71
2019-05-07T00:37:32.399Z,74.50
2019-05-07T00:38:32.391Z,73.88
2019-05-07T00:39:32.846Z,73.78
2019-05-07T00:40:32.367Z,74.29
2019-05-07T00:41:32.380Z,74.40
2019-05-07T00:42:32.826Z,74.91
2019-05-07T00:43:32.367Z,75.22
2019-05-07T00:44:32.843Z,74.50
2019-05-07T00:45:32.661Z,74.50
2019-05-07T00:46:32.304Z,74.50
2019-05-07T00:47:33.033Z,74.50
2019-05-07T00:48:32.983Z,73.98
2019-05-07T00:49:33.076Z,74.40
2019-05-07T00:50:33.154Z,74.08
2019-05-07T00:51:33.349Z,74.40
2019-05-07T00:52:33.549Z,74.60
2019-05-07T00:53:32.915Z,74.29
2019-05-07T00:54:32.572Z,74.50
2019-05-07T00:55:32.687Z,74.80
2019-05-07T00:56:33.212Z,75.22
2019-05-07T00:57:32.424Z,74.29
2019-05-07T00:58:32.206Z,73.68
2019-05-07T00:59:32.330Z,75.22
2019-05-07T01:00:33.212Z,74.40
2019-05-07T01:01:32.409Z,75.12
2019-05-07T01:02:32.499Z,75.22
2019-05-07T01:03:32.855Z,74.91
2019-05-07T01:04:33.143Z,75.32
2019-05-07T01:05:32.687Z,74.40
2019-05-07T01:06:33.088Z,74.80
2019-05-07T01:07:32.557Z,74.50
2019-05-07T01:08:32.234Z,74.74
2019-05-07T01:09:32.448Z,75.22
2019-05-07T01:10:33.005Z,75.53
2019-05-07T01:11:33.493Z,75.43
2019-05-07T01:12:32.906Z,75.32
2019-05-07T01:13:32.371Z,75.22
2019-05-07T01:14:32.625Z,74.74
2019-05-07T01:15:34.485Z,74.53
2019-05-07T01:16:33.051Z,74.95
2019-05-07T01:17:33.505Z,74.74
2019-05-07T01:18:32.455Z,75.15
2019-05-07T01:19:32.850Z,75.63
2019-05-07T01:20:32.937Z,75.77
2019-05-07T01:21:32.637Z,75.84
2019-05-07T01:22:32.993Z,75.63
2019-05-07T01:23:32.279Z,76.70
2019-05-07T01:24:32.306Z,76.59
2019-05-07T01:25:32.896Z,75.15
2019-05-07T01:26:32.954Z,76.70
2019-05-07T01:27:32.252Z,76.49
2019-05-07T01:28:32.925Z,76.49
2019-05-07T01:29:32.857Z,77.31
2019-05-07T01:30:32.404Z,77.22
2019-05-07T01:31:32.884Z,76.90
2019-05-07T01:32:32.949Z,76.80
2019-05-07T01:33:33.208Z,76.80
2019-05-07T01:34:32.353Z,76.59
2019-05-07T01:35:32.692Z,76.29
2019-05-07T01:36:32.021Z,76.80
2019-05-07T01:37:32.568Z,76.59
2019-05-07T01:38:33.159Z,77.31
2019-05-07T01:39:32.630Z,76.59
2019-05-07T01:40:32.385Z,76.49
2019-05-07T01:41:32.685Z,75.87
2019-05-07T01:42:32.723Z,76.70
2019-05-07T01:43:32.189Z,77.31
2019-05-07T01:44:32.526Z,76.39
2019-05-07T01:45:44.835Z,76.90
2019-05-07T01:46:32.647Z,77.35
2019-05-07T01:47:33.175Z,77.25
2019-05-07T01:48:32.366Z,77.01
2019-05-07T01:49:33.045Z,77.31
2019-05-07T01:50:32.273Z,76.90
2019-05-07T01:51:32.699Z,77.22
2019-05-07T01:52:33.128Z,77.11
2019-05-07T01:53:32.303Z,77.97
2019-05-07T01:54:33.217Z,78.08
2019-05-07T01:55:31.987Z,78.69
2019-05-07T01:56:33.127Z,78.66
2019-05-07T01:57:32.628Z,79.11
2019-05-07T01:58:33.162Z,79.11
2019-05-07T01:59:32.161Z,80.04
2019-05-07T02:00:32.647Z,80.55
2019-05-07T02:01:33.120Z,80.04
2019-05-07T02:02:32.029Z,80.55
2019-05-07T02:03:32.820Z,80.44
2019-05-07T02:04:32.674Z,81.07
2019-05-07T02:05:32.673Z,81.17
2019-05-07T02:06:32.759Z,82.03
2019-05-07T02:07:33.272Z,82.14
2019-05-07T02:08:32.865Z,82.03
2019-05-07T02:09:31.387Z,83.03
2019-05-07T02:10:32.119Z,83.48
2019-05-07T02:11:32.678Z,82.65
2019-05-07T02:12:31.909Z,82.96
2019-05-07T02:13:33.720Z,83.58
2019-05-07T02:14:33.059Z,83.68
2019-05-07T02:15:32.322Z,83.48
2019-05-07T02:16:32.667Z,83.48
2019-05-07T02:17:32.166Z,84.09
2019-05-07T02:18:32.634Z,84.51
2019-05-07T02:19:32.898Z,84.61
2019-05-07T02:20:32.170Z,84.09
2019-05-07T02:21:32.936Z,84.61
2019-05-07T02:22:32.039Z,84.72
2019-05-07T02:23:33.050Z,84.20
2019-05-07T02:24:31.196Z,85.27
2019-05-07T02:25:32.683Z,84.72
2019-05-07T02:26:32.187Z,84.81
2019-05-07T02:27:32.823Z,84.72
2019-05-07T02:28:32.998Z,85.64
2019-05-07T02:29:32.395Z,84.86
2019-05-07T02:30:34.590Z,85.06
2019-05-07T02:31:33.587Z,84.20
2019-05-07T02:32:33.600Z,84.75
2019-05-07T02:33:31.097Z,85.17
2019-05-07T02:34:33.885Z,84.96
2019-05-07T02:35:33.366Z,85.13
2019-05-07T02:36:33.683Z,85.54
2019-05-07T02:37:41.834Z,85.37
2019-05-07T02:38:33.982Z,86.10
2019-05-07T02:39:33.310Z,85.47
2019-05-07T02:40:33.827Z,85.64
2019-05-07T02:41:33.008Z,85.47
2019-05-07T02:42:33.550Z,86.20
2019-05-07T02:43:33.799Z,85.89
2019-05-07T02:44:32.447Z,86.30
2019-05-07T02:45:33.206Z,86.10
2019-05-07T02:46:35.167Z,86.10
2019-05-07T02:47:33.044Z,86.41
2019-05-07T02:48:33.334Z,86.71
2019-05-07T02:49:32.740Z,86.92
2019-05-07T02:50:33.019Z,86.92
2019-05-07T02:51:33.372Z,86.76
2019-05-07T02:52:32.455Z,86.92
2019-05-07T02:53:33.478Z,86.86
2019-05-07T02:54:32.790Z,86.41
2019-05-07T02:55:33.522Z,86.51
2019-05-07T02:56:33.253Z,86.30
2019-05-07T02:57:34.128Z,86.10
2019-05-07T02:58:33.088Z,86.24
2019-05-07T02:59:33.523Z,85.99
2019-05-07T03:00:33.413Z,86.55
2019-05-07T03:01:33.301Z,86.76
2019-05-07T03:02:33.237Z,86.20
2019-05-07T03:03:33.213Z,87.07
2019-05-07T03:04:33.334Z,86.61
2019-05-07T03:05:30.738Z,86.76
2019-05-07T03:06:33.622Z,86.96
2019-05-07T03:07:33.389Z,87.17
2019-05-07T03:08:33.053Z,87.17
2019-05-07T03:09:32.904Z,86.96
2019-05-07T03:10:33.585Z,86.55
2019-05-07T03:11:33.654Z,87.17
2019-05-07T03:12:33.271Z,87.07
2019-05-07T03:13:33.384Z,87.07
2019-05-07T03:14:32.424Z,87.27
2019-05-07T03:15:33.327Z,87.37
2019-05-07T03:16:39.582Z,87.37
2019-05-07T03:17:33.293Z,87.68
2019-05-07T03:18:33.444Z,87.99
2019-05-07T03:19:33.071Z,87.37
2019-05-07T03:20:33.268Z,87.48
2019-05-07T03:21:32.893Z,87.48
2019-05-07T03:22:33.490Z,86.96
2019-05-07T03:23:30.544Z,87.07
2019-05-07T03:24:33.988Z,86.96
2019-05-07T03:25:33.547Z,87.07
2019-05-07T03:26:33.932Z,86.34
2019-05-07T03:27:33.749Z,86.24
2019-05-07T03:28:33.448Z,86.86
2019-05-07T03:29:33.348Z,86.86
2019-05-07T03:30:35.421Z,86.65
2019-05-07T03:31:36.343Z,86.65
2019-05-07T03:32:36.496Z,86.86
2019-05-07T03:33:36.095Z,86.86
2019-05-07T03:34:36.489Z,86.76
2019-05-07T03:35:36.389Z,86.86
2019-05-07T03:36:35.454Z,86.96
2019-05-07T03:37:35.744Z,86.96
2019-05-07T03:38:33.505Z,87.00
2019-05-07T03:39:33.613Z,87.21
2019-05-07T03:40:32.888Z,87.00
2019-05-07T03:41:33.226Z,87.07
2019-05-07T03:42:33.219Z,86.44
2019-05-07T03:43:32.576Z,86.79
2019-05-07T03:44:33.604Z,87.07
2019-05-07T03:45:33.311Z,87.00
2019-05-07T03:46:30.275Z,86.55
2019-05-07T03:47:33.142Z,86.65
2019-05-07T03:48:33.014Z,87.10
2019-05-07T03:49:33.822Z,87.68
2019-05-07T03:50:30.230Z,88.45
2019-05-07T03:51:32.792Z,88.14
2019-05-07T03:52:33.208Z,88.14
2019-05-07T03:53:30.195Z,88.14
2019-05-07T03:54:33.730Z,88.24
2019-05-07T03:55:33.013Z,88.24
2019-05-07T03:56:32.898Z,88.65
2019-05-07T03:57:33.043Z,88.39
2019-05-07T03:58:30.171Z,88.45
2019-05-07T03:59:30.128Z,88.76
2019-05-07T04:00:33.060Z,88.24
2019-05-07T04:01:33.269Z,88.24
2019-05-07T04:02:32.935Z,88.04
2019-05-07T04:03:33.664Z,88.55
2019-05-07T04:04:33.005Z,88.45
2019-05-07T04:05:30.060Z,88.70
2019-05-07T04:06:33.057Z,88.04
2019-05-07T04:07:30.040Z,88.18
2019-05-07T04:08:33.093Z,88.39
2019-05-07T04:09:33.018Z,88.28
2019-05-07T04:10:30.004Z,88.18
2019-05-07T04:11:30.015Z,88.18
2019-05-07T04:12:29.984Z,88.28
2019-05-07T04:13:32.975Z,88.18
2019-05-07T04:14:29.960Z,88.18
2019-05-07T04:15:32.804Z,88.28
2019-05-07T04:16:29.949Z,88.70
2019-05-07T04:17:29.924Z,88.07
2019-05-07T04:18:32.669Z,88.39
2019-05-07T04:19:32.643Z,88.18
2019-05-07T04:20:29.892Z,88.59
2019-05-07T04:21:29.913Z,88.28
2019-05-07T04:22:29.875Z,88.39
2019-05-07T04:23:29.857Z,88.39
2019-05-07T04:24:29.869Z,88.32
2019-05-07T04:25:29.836Z,87.66
2019-05-07T04:26:29.826Z,87.15
2019-05-07T04:27:33.032Z,86.73
2019-05-07T04:28:33.035Z,86.42
2019-05-07T04:29:29.790Z,86.42
2019-05-07T04:30:32.859Z,86.42
2019-05-07T04:31:29.766Z,86.32
2019-05-07T04:32:29.757Z,85.60
2019-05-07T04:33:33.067Z,85.84
2019-05-07T04:34:29.755Z,86.01
2019-05-07T04:35:29.720Z,85.53
2019-05-07T04:36:29.710Z,85.63
2019-05-07T04:37:29.703Z,85.84
2019-05-07T04:38:29.688Z,85.74
2019-05-07T04:39:29.698Z,85.32
2019-05-07T04:40:29.665Z,85.94
2019-05-07T04:41:32.641Z,86.15
2019-05-07T04:42:29.643Z,86.15
2019-05-07T04:43:29.634Z,86.88
2019-05-07T04:44:33.020Z,87.08
2019-05-07T04:45:29.643Z,86.88
2019-05-07T04:46:29.601Z,86.88
2019-05-07T04:47:38.424Z,86.77
2019-05-07T04:48:30.578Z,86.40
2019-05-07T04:49:29.566Z,86.88
2019-05-07T04:50:41.471Z,87.23
2019-05-07T04:51:33.401Z,86.50
2019-05-07T04:52:29.532Z,87.18
2019-05-07T04:53:32.627Z,86.98
2019-05-07T04:54:29.509Z,86.98
2019-05-07T04:55:29.497Z,86.25
2019-05-07T04:56:29.510Z,86.36
2019-05-07T04:57:29.474Z,85.42
2019-05-07T04:58:29.466Z,85.63
2019-05-07T04:59:29.453Z,85.22
2019-05-07T05:00:29.442Z,84.81
2019-05-07T05:01:29.455Z,85.22
2019-05-07T05:02:32.361Z,85.32
2019-05-07T05:03:29.406Z,85.42
2019-05-07T05:04:31.531Z,84.50
2019-05-07T05:05:32.907Z,85.39
2019-05-07T05:06:29.399Z,84.15
2019-05-07T05:07:29.364Z,84.15
2019-05-07T05:08:29.351Z,83.84
2019-05-07T05:09:29.372Z,84.56
2019-05-07T05:10:29.348Z,84.05
2019-05-07T05:11:29.316Z,83.32
2019-05-07T05:12:29.307Z,83.39
2019-05-07T05:13:29.296Z,83.28
2019-05-07T05:14:29.314Z,83.45
2019-05-07T05:15:29.277Z,83.34
2019-05-07T05:16:29.281Z,82.07
2019-05-07T05:17:29.249Z,81.14
2019-05-07T05:18:29.236Z,81.14
2019-05-07T05:19:29.268Z,80.18
2019-05-07T05:20:29.214Z,79.76
2019-05-07T05:21:29.203Z,79.83
2019-05-07T05:22:29.194Z,79.93
2019-05-07T05:23:29.181Z,80.00
2019-05-07T05:24:29.191Z,79.20
2019-05-07T05:25:29.186Z,76.25
2019-05-07T05:26:29.148Z,74.46
2019-05-07T05:27:30.625Z,75.18
2019-05-07T05:28:29.125Z,75.63
2019-05-07T05:29:29.113Z,75.73
2019-05-07T05:30:29.102Z,75.53
2019-05-07T05:31:29.092Z,76.76
2019-05-07T05:32:29.102Z,75.90
2019-05-07T05:33:29.068Z,76.53
2019-05-07T05:34:29.083Z,76.83
2019-05-07T05:35:29.047Z,75.60
2019-05-07T05:36:29.050Z,74.84
2019-05-07T05:37:29.023Z,73.47
2019-05-07T05:38:29.016Z,74.33
2019-05-07T05:39:29.003Z,73.91
2019-05-07T05:40:28.994Z,73.61
2019-05-07T05:41:29.002Z,73.44
2019-05-07T05:42:28.968Z,72.85
2019-05-07T05:43:28.960Z,73.30
2019-05-07T05:44:28.950Z,74.57
2019-05-07T05:45:28.974Z,74.26
2019-05-07T05:46:28.922Z,74.16
2019-05-07T05:47:28.926Z,74.67
2019-05-07T05:48:28.921Z,74.71
2019-05-07T05:49:28.998Z,76.53
2019-05-07T05:50:28.878Z,76.46
2019-05-07T05:51:28.905Z,75.63
2019-05-07T05:52:28.854Z,76.04
2019-05-07T05:53:28.843Z,77.08
2019-05-07T05:54:28.837Z,77.28
2019-05-07T05:55:28.843Z,77.18
2019-05-07T05:56:28.834Z,77.18
2019-05-07T05:57:28.802Z,77.90
2019-05-07T05:58:28.787Z,77.38
2019-05-07T05:59:45.025Z,76.70
2019-05-07T06:00:29.765Z,77.18
2019-05-07T06:01:28.779Z,77.52
2019-05-07T06:02:28.744Z,76.46
2019-05-07T06:03:28.731Z,76.63
2019-05-07T06:04:28.747Z,74.43
2019-05-07T06:05:28.713Z,74.74
2019-05-07T06:06:28.697Z,74.50
2019-05-07T06:07:28.685Z,74.08
2019-05-07T06:08:28.678Z,74.91
2019-05-07T06:09:28.690Z,73.54
2019-05-07T06:10:28.655Z,72.65
2019-05-07T06:11:28.642Z,72.99
2019-05-07T06:12:28.634Z,72.17
2019-05-07T06:13:28.625Z,71.24
2019-05-07T06:14:28.630Z,71.55
2019-05-07T06:15:28.601Z,72.58
2019-05-07T06:16:28.587Z,73.09
2019-05-07T06:17:28.602Z,72.03
2019-05-07T06:18:28.565Z,70.56
2019-05-07T06:19:28.579Z,71.45
2019-05-07T06:20:28.567Z,69.88
2019-05-07T06:21:28.529Z,67.38
2019-05-07T06:22:28.520Z,65.06
2019-05-07T06:23:28.508Z,67.38
2019-05-07T06:24:28.500Z,65.71
2019-05-07T06:25:28.515Z,64.56
2019-05-07T06:26:28.474Z,66.06
2019-05-07T06:27:28.466Z,64.01
2019-05-07T06:28:28.450Z,63.20
2019-05-07T06:29:28.437Z,61.25
2019-05-07T06:30:28.465Z,61.96
2019-05-07T06:31:28.418Z,61.11
2019-05-07T06:32:28.408Z,60.10
2019-05-07T06:33:28.396Z,61.91
2019-05-07T06:34:28.385Z,60.96
2019-05-07T06:35:28.396Z,60.21
2019-05-07T06:36:28.363Z,58.50
2019-05-07T06:37:28.352Z,59.53
2019-05-07T06:38:28.363Z,60.42
2019-05-07T06:39:28.331Z,60.31
2019-05-07T06:40:29.455Z,60.55
2019-05-07T06:41:28.327Z,61.44
2019-05-07T06:42:28.297Z,60.62
2019-05-07T06:43:28.282Z,60.80
2019-05-07T06:44:28.270Z,58.52
2019-05-07T06:45:28.258Z,57.78
2019-05-07T06:46:28.342Z,57.09
2019-05-07T06:47:28.238Z,57.37
2019-05-07T06:48:41.402Z,56.56
2019-05-07T06:49:29.230Z,57.68
2019-05-07T06:50:28.201Z,58.29
2019-05-07T06:51:28.201Z,58.25
2019-05-07T06:52:28.201Z,60.19
2019-05-07T06:53:28.168Z,60.97
2019-05-07T06:54:28.172Z,59.72
2019-05-07T06:55:28.168Z,57.96
2019-05-07T06:56:28.135Z,58.37
2019-05-07T06:57:28.125Z,57.83
2019-05-07T06:58:28.141Z,59.05
2019-05-07T06:59:28.107Z,59.94
2019-05-07T07:00:28.091Z,56.48
2019-05-07T07:01:28.079Z,56.15
2019-05-07T07:02:28.070Z,57.90
2019-05-07T07:03:28.085Z,56.68
2019-05-07T07:04:28.046Z,56.40
2019-05-07T07:05:28.037Z,56.56
2019-05-07T07:06:28.052Z,56.61
2019-05-07T07:07:33.867Z,58.07
2019-05-07T07:08:28.997Z,58.75
2019-05-07T07:09:27.992Z,58.65
2019-05-07T07:10:27.977Z,56.81
2019-05-07T07:11:28.012Z,60.08
2019-05-07T07:12:27.955Z,57.93
2019-05-07T07:13:27.941Z,59.78
2019-05-07T07:14:27.930Z,60.05
2019-05-07T07:15:27.920Z,56.89
2019-05-07T07:16:27.941Z,56.27
2019-05-07T07:17:27.896Z,56.46
2019-05-07T07:18:27.884Z,58.50
2019-05-07T07:19:27.874Z,57.93
2019-05-07T07:20:27.863Z,57.15
2019-05-07T07:21:27.882Z,55.36
2019-05-07T07:22:27.867Z,56.17
2019-05-07T07:23:27.830Z,56.07
2019-05-07T07:24:27.818Z,56.07
2019-05-07T07:25:27.806Z,57.93
2019-05-07T07:26:27.794Z,57.88
2019-05-07T07:27:27.816Z,55.13
2019-05-07T07:28:27.772Z,56.02
2019-05-07T07:29:27.763Z,56.43
2019-05-07T07:30:27.750Z,56.63
2019-05-07T07:31:27.736Z,56.56
2019-05-07T07:32:27.743Z,57.14
2019-05-07T07:33:27.740Z,57.01
2019-05-07T07:34:27.716Z,56.94
2019-05-07T07:35:27.694Z,56.35
2019-05-07T07:36:27.683Z,55.97
2019-05-07T07:37:27.670Z,57.02
2019-05-07T07:38:27.682Z,56.40
2019-05-07T07:39:27.654Z,56.63
2019-05-07T07:40:27.635Z,58.55
2019-05-07T07:41:27.627Z,56.23
2019-05-07T07:42:27.636Z,56.46
2019-05-07T07:43:27.601Z,56.35
2019-05-07T07:44:27.595Z,56.43
2019-05-07T07:51:36.760Z,53.70
2019-05-07T07:54:09.388Z,52.15
2019-05-07T07:54:33.130Z,51.77
2019-05-07T07:55:33.158Z,52.58
2019-05-07T07:56:47.851Z,52.35
2019-05-07T07:57:34.117Z,51.92
2019-05-07T07:58:34.292Z,51.84
2019-05-07T07:59:33.071Z,51.43
2019-05-07T08:00:33.075Z,52.25
2019-05-07T08:01:33.065Z,53.63
2019-05-07T08:02:33.032Z,53.88
2019-05-07T08:03:33.082Z,52.63
2019-05-07T08:04:33.011Z,51.11
2019-05-07T08:05:33.002Z,51.64
2019-05-07T08:06:33.004Z,52.68
2019-05-07T08:07:33.170Z,51.69
2019-05-07T08:08:32.966Z,52.94
2019-05-07T08:09:32.959Z,53.29
2019-05-07T08:10:32.970Z,52.22
2019-05-07T08:11:32.932Z,53.47
2019-05-07T08:12:32.922Z,55.20
2019-05-07T08:13:32.908Z,55.61
2019-05-07T08:14:32.904Z,54.16
2019-05-07T08:15:33.194Z,54.54
2019-05-07T08:16:32.935Z,53.14
2019-05-07T08:17:32.871Z,54.24
2019-05-07T08:18:32.951Z,52.50
2019-05-07T08:19:33.096Z,55.43
2019-05-07T08:20:32.858Z,53.14
2019-05-07T08:21:33.257Z,54.39
2019-05-07T08:22:33.070Z,52.25
2019-05-07T08:23:32.822Z,49.86
2019-05-07T08:24:32.789Z,50.98
2019-05-07T08:25:32.775Z,49.45
2019-05-07T08:26:32.766Z,49.55
2019-05-07T08:27:32.793Z,51.92
2019-05-07T08:28:32.761Z,50.92
2019-05-07T08:29:32.848Z,53.34
2019-05-07T08:30:32.764Z,54.26
2019-05-07T08:31:32.709Z,53.72
2019-05-07T08:32:32.777Z,55.15
2019-05-07T08:33:32.707Z,53.29
2019-05-07T08:34:32.698Z,52.53
2019-05-07T08:35:32.775Z,54.21
2019-05-07T08:36:33.203Z,52.38
2019-05-07T08:37:32.640Z,49.97
2019-05-07T08:38:32.774Z,50.78
2019-05-07T08:39:32.796Z,51.92
2019-05-07T08:40:32.716Z,51.21
2019-05-07T08:41:32.593Z,53.12
2019-05-07T08:42:32.583Z,53.02
2019-05-07T08:43:32.586Z,50.90
2019-05-07T08:44:32.613Z,51.75
2019-05-07T08:45:32.760Z,53.80
2019-05-07T08:46:32.894Z,53.14
2019-05-07T08:47:32.528Z,53.16
2019-05-07T08:48:32.517Z,53.92
2019-05-07T08:49:39.329Z,54.97
2019-05-07T08:50:33.516Z,54.28
2019-05-07T08:51:32.731Z,55.02
2019-05-07T08:52:32.764Z,58.29
2019-05-07T08:53:32.881Z,57.48
2019-05-07T08:54:32.488Z,56.56
2019-05-07T08:55:32.461Z,56.32
2019-05-07T08:56:32.425Z,55.41
2019-05-07T08:57:32.417Z,55.91
2019-05-07T08:58:32.416Z,55.99
2019-05-07T08:59:32.391Z,56.10
2019-05-07T09:00:32.689Z,54.46
2019-05-07T09:01:32.590Z,55.51
2019-05-07T09:02:32.694Z,56.12
2019-05-07T09:03:32.438Z,56.32
2019-05-07T09:04:32.836Z,55.94
2019-05-07T09:05:32.492Z,56.56
2019-05-07T09:06:32.338Z,56.45
2019-05-07T09:07:32.365Z,57.48
2019-05-07T09:08:32.289Z,56.58
2019-05-07T09:09:32.753Z,58.93
2019-05-07T09:10:32.593Z,59.78
2019-05-07T09:11:32.293Z,59.09
2019-05-07T09:12:32.246Z,59.50
2019-05-07T09:13:33.325Z,60.65
2019-05-07T09:14:32.363Z,60.68
2019-05-07T09:15:32.256Z,61.98
2019-05-07T09:16:32.222Z,62.08
2019-05-07T09:17:32.211Z,61.34
2019-05-07T09:18:32.322Z,60.62
2019-05-07T09:19:32.350Z,59.70
2019-05-07T09:20:32.336Z,60.08
2019-05-07T09:21:32.284Z,59.19
2019-05-07T09:22:32.475Z,59.70
2019-05-07T09:23:32.120Z,60.01
2019-05-07T09:24:33.221Z,60.21
2019-05-07T09:25:32.539Z,60.83
2019-05-07T09:26:32.385Z,61.13
2019-05-07T09:27:32.705Z,61.00
2019-05-07T09:28:32.660Z,61.49
2019-05-07T09:29:32.425Z,60.64
2019-05-07T09:30:32.647Z,58.39
2019-05-07T09:31:32.266Z,58.37
2019-05-07T09:32:32.678Z,57.75
2019-05-07T09:33:32.155Z,58.78
2019-05-07T09:34:32.679Z,58.57
2019-05-07T09:35:32.163Z,58.54
2019-05-07T09:36:32.290Z,58.85
2019-05-07T09:37:32.621Z,58.34
2019-05-07T09:38:32.740Z,56.10
2019-05-07T09:39:32.455Z,57.01
2019-05-07T09:40:32.128Z,56.71
2019-05-07T09:41:32.709Z,58.37
2019-05-07T09:42:33.266Z,56.73
2019-05-07T09:43:32.484Z,56.81
2019-05-07T09:44:32.518Z,56.68
2019-05-07T09:45:32.846Z,56.68
2019-05-07T09:46:32.580Z,56.78
2019-05-07T09:47:32.581Z,55.97
2019-05-07T09:48:33.850Z,56.17
2019-05-07T09:49:32.672Z,56.48
2019-05-07T09:50:32.517Z,56.78
2019-05-07T09:51:32.287Z,56.58
2019-05-07T09:52:32.254Z,56.04
2019-05-07T09:53:32.134Z,55.13
2019-05-07T09:54:32.300Z,54.31
2019-05-07T09:55:32.534Z,56.35
2019-05-07T09:56:32.037Z,58.18
2019-05-07T09:57:34.529Z,57.75
2019-05-07T09:58:36.481Z,56.12
2019-05-07T09:59:32.715Z,55.35
2019-05-07T10:00:32.106Z,54.97
2019-05-07T10:01:32.078Z,55.07
2019-05-07T10:02:32.159Z,56.02
2019-05-07T10:03:32.423Z,55.30
2019-05-07T10:04:32.724Z,56.22
2019-05-07T10:05:32.094Z,54.18
2019-05-07T10:06:32.167Z,54.13
2019-05-07T10:07:32.522Z,53.06
2019-05-07T10:08:31.865Z,54.13
2019-05-07T10:09:32.746Z,49.72
2019-05-07T10:10:32.889Z,48.83
2019-05-07T10:11:32.922Z,50.07
2019-05-07T10:12:32.953Z,50.76
2019-05-07T10:13:32.987Z,49.11
2019-05-07T10:14:33.072Z,46.95
2019-05-07T10:15:33.140Z,49.37
2019-05-07T10:16:31.521Z,47.42
2019-05-07T10:17:32.742Z,50.86
2019-05-07T10:18:32.072Z,46.83
2019-05-07T10:19:32.521Z,48.96
2019-05-07T10:20:32.745Z,47.16
2019-05-07T10:21:31.468Z,47.75
2019-05-07T10:22:32.121Z,47.26
2019-05-07T10:23:31.448Z,48.35
2019-05-07T10:24:31.433Z,48.03
2019-05-07T10:25:32.776Z,47.82
2019-05-07T10:26:32.179Z,46.59
2019-05-07T10:27:32.508Z,47.38
2019-05-07T10:28:32.123Z,48.18
2019-05-07T10:29:32.291Z,48.69
2019-05-07T10:30:32.157Z,46.08
2019-05-07T10:31:32.014Z,48.11
2019-05-07T10:32:32.245Z,49.10
2019-05-07T10:33:31.943Z,46.18
2019-05-07T10:34:31.319Z,47.52
2019-05-07T10:35:33.682Z,47.64
2019-05-07T10:36:32.045Z,47.85
2019-05-07T10:37:31.827Z,47.03
2019-05-07T10:38:31.279Z,46.33
2019-05-07T10:39:32.519Z,48.25
2019-05-07T10:40:32.748Z,47.24
2019-05-07T10:41:31.848Z,44.54
2019-05-07T10:42:32.291Z,48.63
2019-05-07T10:43:32.751Z,46.29
2019-05-07T10:44:32.121Z,47.33
2019-05-07T10:45:32.316Z,47.55
2019-05-07T10:46:31.966Z,51.39
2019-05-07T10:47:31.282Z,51.62
2019-05-07T10:48:32.011Z,51.59
2019-05-07T10:49:31.801Z,50.29
2019-05-07T10:50:38.670Z,51.39
2019-05-07T10:51:32.317Z,51.21
2019-05-07T10:52:31.908Z,51.42
2019-05-07T10:53:32.076Z,50.29
2019-05-07T10:54:31.097Z,50.09
2019-05-07T10:55:32.800Z,50.12
2019-05-07T10:56:32.614Z,50.01
2019-05-07T10:57:32.785Z,49.40
2019-05-07T10:58:32.050Z,47.78
2019-05-07T10:59:31.040Z,49.91
2019-05-07T11:00:32.937Z,48.11
2019-05-07T11:01:32.754Z,47.70
2019-05-07T11:02:32.489Z,47.31
2019-05-07T11:03:32.418Z,50.24
2019-05-07T11:04:40.334Z,48.61
2019-05-07T11:05:32.654Z,49.55
2019-05-07T11:06:32.348Z,51.28
2019-05-07T11:07:32.792Z,50.57
2019-05-07T11:08:32.926Z,49.65
2019-05-07T11:09:32.691Z,50.95
2019-05-07T11:10:32.673Z,50.16
2019-05-07T11:11:31.896Z,49.91
2019-05-07T11:12:31.937Z,49.18
2019-05-07T11:13:30.926Z,49.76
2019-05-07T11:14:32.152Z,50.15
2019-05-07T11:15:32.706Z,51.21
2019-05-07T11:16:32.439Z,47.75
2019-05-07T11:17:32.658Z,47.42
2019-05-07T11:18:32.278Z,49.62
2019-05-07T11:19:32.426Z,45.92
2019-05-07T11:20:32.050Z,47.62
2019-05-07T11:21:32.956Z,46.99
2019-05-07T11:22:32.766Z,47.35
2019-05-07T11:23:32.680Z,47.63
2019-05-07T11:24:32.079Z,46.22
2019-05-07T11:25:30.749Z,47.53
2019-05-07T11:26:32.819Z,45.81
2019-05-07T11:27:32.841Z,45.89
2019-05-07T11:28:32.315Z,44.49
2019-05-07T11:29:33.064Z,47.74
2019-05-07T11:30:32.087Z,45.79
2019-05-07T11:31:32.506Z,44.80
2019-05-07T11:32:32.122Z,45.87
2019-05-07T11:33:32.546Z,48.23
2019-05-07T11:34:32.624Z,47.64
2019-05-07T11:35:31.876Z,47.77
2019-05-07T11:36:31.989Z,48.07
2019-05-07T11:37:30.613Z,47.56
2019-05-07T11:38:33.140Z,46.45
2019-05-07T11:39:30.610Z,47.16
2019-05-07T11:40:32.078Z,49.80
2019-05-07T11:41:32.081Z,47.99
2019-05-07T11:42:30.579Z,47.61
2019-05-07T11:43:32.502Z,47.83
2019-05-07T11:44:32.057Z,47.43
2019-05-07T11:45:32.140Z,47.66
2019-05-07T11:46:32.572Z,48.59
2019-05-07T11:47:31.940Z,49.38
2019-05-07T11:48:32.548Z,46.45
2019-05-07T11:49:32.639Z,48.21
2019-05-07T11:50:32.842Z,48.27
2019-05-07T11:51:30.453Z,47.58
2019-05-07T11:52:35.201Z,50.14
2019-05-07T11:53:32.737Z,49.84
2019-05-07T11:54:31.801Z,50.04
2019-05-07T11:55:30.409Z,49.22
2019-05-07T11:56:32.621Z,49.96
2019-05-07T11:57:30.386Z,49.15
2019-05-07T11:58:32.318Z,46.20
2019-05-07T11:59:32.482Z,47.28
2019-05-07T12:00:32.263Z,50.03
2019-05-07T12:01:43.115Z,48.63
2019-05-07T12:02:32.036Z,49.11
2019-05-07T12:03:32.337Z,50.23
2019-05-07T12:04:32.037Z,49.90
2019-05-07T12:05:30.317Z,49.78
2019-05-07T12:06:32.210Z,47.85
2019-05-07T12:07:30.273Z,49.35
2019-05-07T12:08:39.303Z,47.72
2019-05-07T12:09:33.340Z,47.92
2019-05-07T12:10:30.244Z,48.31
2019-05-07T12:11:32.085Z,47.64
2019-05-07T12:12:32.462Z,48.15
2019-05-07T12:13:32.105Z,50.06
2019-05-07T12:14:32.558Z,52.58
2019-05-07T12:15:32.255Z,49.20
2019-05-07T12:16:32.041Z,47.78
2019-05-07T12:17:31.648Z,49.69
2019-05-07T12:18:32.004Z,50.27
2019-05-07T12:19:30.163Z,50.98
2019-05-07T12:20:32.252Z,49.97
2019-05-07T12:21:30.114Z,47.53
2019-05-07T12:22:30.103Z,48.34
2019-05-07T12:23:30.093Z,50.04
2019-05-07T12:24:30.079Z,49.92
2019-05-07T12:25:32.049Z,49.27
2019-05-07T12:26:30.059Z,47.92
2019-05-07T12:27:32.203Z,44.50
2019-05-07T12:28:30.036Z,47.36
2019-05-07T12:29:32.101Z,46.22
2019-05-07T12:30:30.034Z,47.34
2019-05-07T12:31:30.001Z,46.10
2019-05-07T12:32:32.253Z,47.03
2019-05-07T12:33:29.992Z,46.33
2019-05-07T12:34:31.822Z,44.60
2019-05-07T12:35:29.957Z,44.65
2019-05-07T12:36:31.882Z,44.65
2019-05-07T12:37:31.903Z,45.89
2019-05-07T12:38:29.923Z,44.36
2019-05-07T12:39:31.700Z,46.59
2019-05-07T12:40:29.898Z,46.57
2019-05-07T12:41:29.904Z,44.65
2019-05-07T12:42:29.899Z,45.86
2019-05-07T12:43:31.782Z,46.45
2019-05-07T12:44:31.862Z,46.35
2019-05-07T12:45:29.843Z,47.14
2019-05-07T12:46:29.855Z,45.82
2019-05-07T12:47:29.819Z,46.28
2019-05-07T12:48:29.832Z,45.98
2019-05-07T12:49:29.819Z,45.37
2019-05-07T12:50:29.788Z,45.37
2019-05-07T12:51:34.492Z,45.57
2019-05-07T12:52:32.011Z,42.63
2019-05-07T12:53:31.450Z,43.04
2019-05-07T12:54:29.768Z,40.14
2019-05-07T12:55:29.732Z,43.81
2019-05-07T12:56:31.917Z,45.72
2019-05-07T12:57:29.731Z,41.58
2019-05-07T12:58:29.698Z,40.28
2019-05-07T12:59:29.685Z,42.31
2019-05-07T13:00:29.698Z,43.61
2019-05-07T13:01:29.663Z,44.60